createdAt,value
2022-08-01T00:01:34.382Z,37.90
2022-08-01T00:04:03.109Z,37.90
2022-08-01T00:06:31.837Z,37.70
2022-08-01T00:09:03.563Z,37.80
2022-08-01T00:11:32.149Z,37.70
2022-08-01T00:14:00.536Z,37.70
2022-08-01T00:16:29.488Z,37.70
2022-08-01T00:18:58.283Z,37.50
2022-08-01T00:21:26.721Z,37.50
2022-08-01T00:23:55.412Z,37.80
2022-08-01T00:26:28.536Z,38.00
2022-08-01T00:28:56.974Z,38.50
2022-08-01T00:31:25.451Z,38.60
2022-08-01T00:33:53.929Z,38.70
2022-08-01T00:36:22.356Z,38.80
2022-08-01T00:38:50.790Z,38.90
2022-08-01T00:41:19.220Z,39.00
2022-08-01T00:43:49.137Z,39.00
2022-08-01T00:46:17.602Z,39.40
2022-08-01T00:48:54.504Z,39.90
2022-08-01T00:51:30.435Z,40.40
2022-08-01T00:53:59.112Z,40.50
2022-08-01T00:56:29.854Z,40.70
2022-08-01T00:59:00.177Z,40.90
2022-08-01T01:01:39.459Z,40.70
2022-08-01T01:04:08.821Z,40.70
2022-08-01T01:06:58.828Z,40.80
2022-08-01T01:09:40.435Z,41.40
2022-08-01T01:12:24.343Z,40.60
2022-08-01T01:15:06.701Z,40.80
2022-08-01T01:17:51.469Z,40.80
2022-08-01T01:20:25.310Z,40.70
2022-08-01T01:23:12.232Z,40.60
2022-08-01T01:26:04.987Z,40.60
2022-08-01T01:28:43.545Z,40.50
2022-08-01T01:31:16.695Z,40.80
2022-08-01T01:33:47.620Z,40.80
2022-08-01T01:36:21.068Z,41.00
2022-08-01T01:38:50.869Z,41.00
2022-08-01T01:41:20.870Z,41.00
2022-08-01T01:43:50.608Z,41.00
2022-08-01T01:46:28.039Z,41.00
2022-08-01T01:48:58.858Z,41.20
2022-08-01T01:51:30.496Z,41.10
2022-08-01T01:54:01.576Z,41.50
2022-08-01T01:56:32.512Z,41.70
2022-08-01T01:59:06.214Z,41.90
2022-08-01T02:01:58.830Z,42.10
2022-08-01T02:04:29.409Z,42.00
2022-08-01T02:07:00.011Z,42.00
2022-08-01T02:09:30.666Z,42.00
2022-08-01T02:12:08.875Z,41.90
2022-08-01T02:14:40.998Z,41.90
2022-08-01T02:17:14.668Z,41.90
2022-08-01T02:19:43.728Z,41.80
2022-08-01T02:22:18.772Z,41.70
2022-08-01T02:24:54.665Z,41.70
2022-08-01T02:27:30.788Z,41.80
2022-08-01T02:30:05.719Z,41.80
2022-08-01T02:32:44.164Z,41.80
2022-08-01T02:35:19.530Z,41.60
2022-08-01T02:37:50.672Z,41.60
2022-08-01T02:40:20.349Z,41.70
2022-08-01T02:42:54.640Z,41.70
2022-08-01T02:45:27.936Z,41.70
2022-08-01T02:48:06.228Z,41.70
2022-08-01T02:50:36.898Z,41.70
2022-08-01T02:53:11.179Z,41.80
2022-08-01T02:55:42.768Z,41.90
2022-08-01T02:58:14.596Z,41.90
2022-08-01T03:00:47.627Z,42.10
2022-08-01T03:03:20.428Z,42.20
2022-08-01T03:05:50.743Z,42.20
2022-08-01T03:08:22.036Z,42.10
2022-08-01T03:10:53.523Z,42.20
2022-08-01T03:13:24.278Z,42.20
2022-08-01T03:15:56.035Z,42.10
2022-08-01T03:18:29.299Z,42.00
2022-08-01T03:20:59.954Z,42.10
2022-08-01T03:23:38.055Z,42.30
2022-08-01T03:26:08.277Z,42.20
2022-08-01T03:28:40.715Z,42.40
2022-08-01T03:31:09.243Z,42.40
2022-08-01T03:33:39.077Z,42.50
2022-08-01T03:36:12.628Z,42.60
2022-08-01T03:38:43.252Z,42.50
2022-08-01T03:41:17.688Z,42.50
2022-08-01T03:43:54.313Z,42.50
2022-08-01T03:46:31.978Z,42.50
2022-08-01T03:49:19.656Z,42.40
2022-08-01T03:51:51.525Z,42.70
2022-08-01T03:54:26.811Z,42.50
2022-08-01T03:56:56.871Z,42.50
2022-08-01T03:59:26.670Z,42.50
2022-08-01T04:01:56.523Z,43.00
2022-08-01T04:04:27.247Z,43.10
2022-08-01T04:06:55.973Z,43.00
2022-08-01T04:09:24.648Z,43.10
2022-08-01T04:11:55.880Z,43.20
2022-08-01T04:14:24.903Z,43.20
2022-08-01T04:16:53.357Z,43.40
2022-08-01T04:19:21.789Z,43.40
2022-08-01T04:21:52.714Z,43.20
2022-08-01T04:24:24.837Z,43.30
2022-08-01T04:26:54.817Z,43.30
2022-08-01T04:29:26.701Z,43.10
2022-08-01T04:31:59.090Z,42.70
2022-08-01T04:34:32.677Z,42.50
2022-08-01T04:37:04.123Z,42.10
2022-08-01T04:39:50.717Z,42.00
2022-08-01T04:42:25.658Z,41.90
2022-08-01T04:45:02.933Z,41.20
2022-08-01T04:47:33.025Z,41.10
2022-08-01T04:50:01.814Z,41.80
2022-08-01T04:52:37.202Z,40.60
2022-08-01T04:55:08.142Z,40.80
2022-08-01T04:57:39.541Z,40.90
2022-08-01T05:00:09.769Z,40.70
2022-08-01T05:02:38.967Z,40.70
2022-08-01T05:05:08.609Z,40.70
2022-08-01T05:07:44.247Z,40.60
2022-08-01T05:10:14.205Z,40.20
2022-08-01T05:12:42.625Z,39.90
2022-08-01T05:15:15.527Z,40.00
2022-08-01T05:17:44.922Z,39.90
2022-08-01T05:20:14.321Z,39.90
2022-08-01T05:22:44.480Z,39.70
2022-08-01T05:25:13.541Z,40.00
2022-08-01T05:27:49.206Z,40.30
2022-08-01T05:30:19.555Z,40.40
2022-08-01T05:32:48.038Z,39.70
2022-08-01T05:35:16.484Z,39.60
2022-08-01T05:37:46.321Z,39.80
2022-08-01T05:40:14.828Z,39.80
2022-08-01T05:42:43.233Z,39.80
2022-08-01T05:45:12.696Z,40.00
2022-08-01T05:47:43.000Z,39.60
2022-08-01T05:50:11.931Z,39.00
2022-08-01T05:52:40.361Z,38.20
2022-08-01T05:55:11.528Z,37.20
2022-08-01T05:57:40.559Z,37.00
2022-08-01T06:00:12.541Z,37.10
2022-08-01T06:02:44.480Z,35.80
2022-08-01T06:05:13.768Z,34.60
2022-08-01T06:07:43.204Z,33.80
2022-08-01T06:10:13.323Z,33.60
2022-08-01T06:12:41.763Z,33.40
2022-08-01T06:15:11.213Z,33.50
2022-08-01T06:17:40.117Z,33.70
2022-08-01T06:20:10.214Z,33.90
2022-08-01T06:22:38.647Z,34.30
2022-08-01T06:25:10.144Z,34.80
2022-08-01T06:27:40.061Z,34.80
2022-08-01T06:30:10.179Z,34.40
2022-08-01T06:32:38.966Z,34.60
2022-08-01T06:35:08.528Z,34.10
2022-08-01T06:37:36.968Z,34.40
2022-08-01T06:40:06.277Z,34.20
2022-08-01T06:42:36.582Z,33.40
2022-08-01T06:45:08.548Z,33.50
2022-08-01T06:47:37.760Z,33.00
2022-08-01T06:50:07.589Z,33.20
2022-08-01T06:52:39.478Z,33.10
2022-08-01T06:55:09.501Z,32.80
2022-08-01T06:57:38.103Z,32.70
2022-08-01T07:00:12.184Z,31.80
2022-08-01T07:02:43.477Z,31.20
2022-08-01T07:05:12.098Z,32.20
2022-08-01T07:07:40.844Z,30.90
2022-08-01T07:10:10.997Z,30.50
2022-08-01T07:12:41.520Z,30.90
2022-08-01T07:15:13.268Z,31.30
2022-08-01T07:17:42.441Z,30.80
2022-08-01T07:20:16.578Z,31.20
2022-08-01T07:22:48.295Z,30.70
2022-08-01T07:25:17.534Z,30.60
2022-08-01T07:27:47.129Z,29.60
2022-08-01T07:30:17.266Z,29.10
2022-08-01T07:32:45.722Z,29.20
2022-08-01T07:35:14.179Z,28.50
2022-08-01T07:37:48.979Z,28.60
2022-08-01T07:40:19.650Z,26.90
2022-08-01T07:42:48.919Z,26.10
2022-08-01T07:45:18.894Z,25.60
2022-08-01T07:47:47.808Z,26.30
2022-08-01T07:50:16.264Z,26.00
2022-08-01T07:52:45.259Z,25.50
2022-08-01T07:55:16.654Z,25.10
2022-08-01T07:57:45.638Z,24.90
2022-08-01T08:00:15.426Z,24.30
2022-08-01T08:02:45.765Z,23.10
2022-08-01T08:05:14.436Z,22.70
2022-08-01T08:07:42.877Z,22.80
2022-08-01T08:10:11.868Z,22.70
2022-08-01T08:12:40.808Z,22.70
2022-08-01T08:15:10.887Z,22.30
2022-08-01T08:17:40.299Z,22.70
2022-08-01T08:20:12.545Z,21.90
2022-08-01T08:22:42.269Z,22.20
2022-08-01T08:25:12.576Z,20.70
2022-08-01T08:27:41.355Z,20.60
2022-08-01T08:30:12.165Z,20.00
2022-08-01T08:32:41.993Z,21.60
2022-08-01T08:35:15.191Z,20.10
2022-08-01T08:37:47.757Z,20.40
2022-08-01T08:40:32.657Z,20.90
2022-08-01T08:43:04.175Z,20.20
2022-08-01T08:45:58.980Z,20.20
2022-08-01T08:48:26.043Z,19.80
2022-08-01T08:51:00.163Z,20.00
2022-08-01T08:53:34.459Z,19.90
2022-08-01T08:56:05.632Z,20.40
2022-08-01T08:58:38.650Z,20.80
2022-08-01T09:01:11.820Z,20.50
2022-08-01T09:03:40.963Z,19.10
2022-08-01T09:06:11.246Z,19.20
2022-08-01T09:08:39.827Z,18.70
2022-08-01T09:11:08.421Z,18.80
2022-08-01T09:13:36.944Z,18.50
2022-08-01T09:16:19.408Z,19.20
2022-08-01T09:18:53.825Z,20.00
2022-08-01T09:21:26.293Z,19.80
2022-08-01T09:23:59.819Z,19.10
2022-08-01T09:26:34.267Z,18.80
2022-08-01T09:29:07.416Z,18.50
2022-08-01T09:31:47.215Z,18.90
2022-08-01T09:34:19.885Z,19.10
2022-08-01T09:36:55.330Z,19.30
2022-08-01T09:39:27.283Z,19.60
2022-08-01T09:41:59.726Z,19.80
2022-08-01T09:44:44.735Z,19.60
2022-08-01T09:47:25.468Z,20.20
2022-08-01T09:49:59.435Z,20.00
2022-08-01T09:52:30.024Z,20.30
2022-08-01T09:55:00.927Z,19.60
2022-08-01T09:57:31.367Z,18.50
2022-08-01T10:00:03.070Z,18.10
2022-08-01T10:02:35.639Z,18.00
2022-08-01T10:05:08.296Z,17.00
2022-08-01T10:07:59.130Z,16.50
2022-08-01T10:10:28.902Z,17.90
2022-08-01T10:13:00.574Z,16.70
2022-08-01T10:15:37.511Z,16.80
2022-08-01T10:18:16.432Z,16.50
2022-08-01T10:20:56.609Z,16.60
2022-08-01T10:23:40.758Z,16.20
2022-08-01T10:26:12.088Z,16.20
2022-08-01T10:28:41.292Z,16.10
2022-08-01T10:31:15.125Z,16.50
2022-08-01T10:33:50.509Z,17.70
2022-08-01T10:36:25.403Z,18.70
2022-08-01T10:38:57.540Z,18.70
2022-08-01T10:41:27.888Z,17.90
2022-08-01T10:43:59.373Z,18.50
2022-08-01T10:46:28.679Z,18.50
2022-08-01T10:49:08.231Z,19.20
2022-08-01T10:51:52.407Z,19.10
2022-08-01T10:54:27.869Z,18.30
2022-08-01T10:57:02.441Z,17.10
2022-08-01T10:59:58.930Z,17.50
2022-08-01T11:02:34.662Z,17.60
2022-08-01T11:05:14.327Z,17.20
2022-08-01T11:07:51.796Z,16.80
2022-08-01T11:10:32.311Z,17.30
2022-08-01T11:13:04.522Z,17.10
2022-08-01T11:15:33.019Z,17.60
2022-08-01T11:18:05.001Z,17.00
2022-08-01T11:20:41.806Z,16.40
2022-08-01T11:23:21.784Z,14.80
2022-08-01T11:26:17.387Z,14.30
2022-08-01T11:29:20.042Z,14.50
2022-08-01T11:31:50.833Z,15.30
2022-08-01T11:34:19.631Z,14.90
2022-08-01T11:36:58.789Z,15.40
2022-08-01T11:39:28.297Z,14.10
2022-08-01T11:42:20.934Z,14.40
2022-08-01T11:44:53.383Z,14.90
2022-08-01T11:47:47.034Z,15.40
2022-08-01T11:50:39.193Z,15.80
2022-08-01T11:53:11.350Z,16.50
2022-08-01T11:55:51.553Z,16.40
2022-08-01T11:58:29.369Z,15.70
2022-08-01T12:01:01.102Z,15.70
2022-08-01T12:03:33.423Z,14.40
2022-08-01T12:06:02.954Z,13.60
2022-08-01T12:08:35.858Z,14.70
2022-08-01T12:11:07.287Z,12.90
2022-08-01T12:13:44.451Z,12.80
2022-08-01T12:16:13.648Z,12.80
2022-08-01T12:18:43.533Z,11.90
2022-08-01T12:21:12.079Z,12.40
2022-08-01T12:23:40.618Z,13.10
2022-08-01T12:26:25.785Z,13.10
2022-08-01T12:28:59.181Z,12.90
2022-08-01T12:31:34.963Z,12.40
2022-08-01T12:34:29.144Z,13.00
2022-08-01T12:36:59.435Z,12.40
2022-08-01T12:39:34.490Z,12.10
2022-08-01T12:42:03.681Z,12.20
2022-08-01T12:44:34.391Z,12.50
2022-08-01T12:47:04.988Z,12.40
2022-08-01T12:49:37.491Z,12.50
2022-08-01T12:52:12.842Z,12.60
2022-08-01T12:55:06.386Z,13.40
2022-08-01T12:57:40.534Z,14.30
2022-08-01T13:00:21.170Z,14.80
2022-08-01T13:02:52.166Z,14.90
2022-08-01T13:05:20.599Z,15.10
2022-08-01T13:07:52.466Z,15.50
2022-08-01T13:10:29.574Z,16.00
2022-08-01T13:13:00.823Z,15.80
2022-08-01T13:15:33.777Z,15.80
2022-08-01T13:18:23.860Z,14.90
2022-08-01T13:21:16.356Z,14.70
2022-08-01T13:24:04.288Z,15.10
2022-08-01T13:26:50.705Z,15.10
2022-08-01T13:29:21.494Z,15.80
2022-08-01T13:31:52.107Z,15.30
2022-08-01T13:34:31.703Z,14.80
2022-08-01T13:37:00.276Z,14.70
2022-08-01T13:39:45.480Z,14.40
2022-08-01T13:42:19.241Z,15.60
2022-08-01T13:44:48.113Z,15.40
2022-08-01T13:47:18.033Z,16.40
2022-08-01T13:49:46.583Z,16.30
2022-08-01T13:52:15.092Z,16.50
2022-08-01T13:54:43.536Z,17.50
2022-08-01T13:57:12.351Z,16.90
2022-08-01T13:59:40.839Z,16.20
2022-08-01T14:02:09.744Z,15.80
2022-08-01T14:04:39.631Z,15.50
2022-08-01T14:07:11.802Z,15.00
2022-08-01T14:09:44.935Z,15.10
2022-08-01T14:12:26.165Z,15.80
2022-08-01T14:14:54.597Z,15.30
2022-08-01T14:17:23.027Z,14.90
2022-08-01T14:19:52.892Z,14.30
2022-08-01T14:22:21.312Z,14.20
2022-08-01T14:24:50.128Z,14.20
2022-08-01T14:27:18.539Z,13.70
2022-08-01T14:30:03.038Z,12.90
2022-08-01T14:32:34.263Z,12.60
2022-08-01T14:35:05.719Z,12.00
2022-08-01T14:37:38.096Z,10.70
2022-08-01T14:40:11.549Z,10.40
2022-08-01T14:42:40.708Z,10.70
2022-08-01T14:45:10.962Z,10.20
2022-08-01T14:47:41.498Z,10.40
2022-08-01T14:50:14.484Z,10.40
2022-08-01T14:52:44.586Z,10.90
2022-08-01T14:55:14.873Z,11.30
2022-08-01T14:57:43.324Z,11.00
2022-08-01T15:00:14.290Z,11.20
2022-08-01T15:02:43.438Z,11.80
2022-08-01T15:05:13.773Z,12.00
2022-08-01T15:07:52.704Z,11.50
2022-08-01T15:10:22.627Z,10.60
2022-08-01T15:12:51.185Z,11.20
2022-08-01T15:15:20.398Z,11.00
2022-08-01T15:17:49.039Z,10.60
2022-08-01T15:20:19.109Z,10.00
2022-08-01T15:22:48.744Z,9.80
2022-08-01T15:25:17.528Z,10.70
2022-08-01T15:27:46.132Z,10.90
2022-08-01T15:30:14.931Z,10.80
2022-08-01T15:32:44.566Z,11.40
2022-08-01T15:35:14.840Z,11.50
2022-08-01T15:37:44.625Z,12.10
2022-08-01T15:40:14.001Z,12.00
2022-08-01T15:42:42.523Z,12.00
2022-08-01T15:45:37.331Z,12.90
2022-08-01T15:48:02.211Z,13.10
2022-08-01T15:50:30.603Z,12.70
2022-08-01T15:53:00.402Z,12.60
2022-08-01T15:55:28.814Z,12.50
2022-08-01T15:57:57.326Z,12.90
2022-08-01T16:00:25.872Z,12.70
2022-08-01T16:03:02.218Z,12.20
2022-08-01T16:05:30.646Z,12.80
2022-08-01T16:08:01.639Z,12.20
2022-08-01T16:10:31.297Z,13.10
2022-08-01T16:13:06.840Z,13.70
2022-08-01T16:15:37.661Z,13.80
2022-08-01T16:18:07.453Z,13.80
2022-08-01T16:20:40.171Z,13.70
2022-08-01T16:23:13.202Z,14.00
2022-08-01T16:25:41.837Z,13.90
2022-08-01T16:28:10.831Z,14.30
2022-08-01T16:30:50.892Z,14.90
2022-08-01T16:33:49.465Z,15.50
2022-08-01T16:36:17.747Z,15.70
2022-08-01T16:38:47.682Z,15.80
2022-08-01T16:41:20.353Z,16.00
2022-08-01T16:43:53.021Z,16.20
2022-08-01T16:46:23.851Z,16.20
2022-08-01T16:48:52.499Z,16.50
2022-08-01T16:51:20.980Z,16.40
2022-08-01T16:53:50.855Z,16.70
2022-08-01T16:56:20.228Z,17.00
2022-08-01T16:58:48.809Z,17.10
2022-08-01T17:01:59.536Z,17.30
2022-08-01T17:04:07.215Z,17.50
2022-08-01T17:06:36.032Z,17.80
2022-08-01T17:09:06.131Z,18.30
2022-08-01T17:11:35.415Z,19.10
2022-08-01T17:14:03.968Z,19.10
2022-08-01T17:16:32.457Z,20.00
2022-08-01T17:19:00.917Z,26.60
2022-08-01T17:21:29.460Z,43.20
2022-08-01T17:23:57.941Z,47.50
2022-08-01T17:26:27.809Z,55.60
2022-08-01T17:28:56.168Z,57.30
2022-08-01T17:31:24.622Z,57.40
2022-08-01T17:33:55.155Z,59.40
2022-08-01T17:36:24.873Z,63.70
2022-08-01T17:38:53.356Z,65.30
2022-08-01T17:41:21.790Z,66.40
2022-08-01T17:43:51.641Z,64.90
2022-08-01T17:46:20.163Z,65.50
2022-08-01T17:48:48.736Z,66.80
2022-08-01T17:51:22.477Z,66.50
2022-08-01T17:53:55.791Z,67.10
2022-08-01T17:56:26.938Z,66.60
2022-08-01T17:58:57.258Z,66.60
2022-08-01T18:01:27.415Z,68.20
2022-08-01T18:03:58.494Z,68.70
2022-08-01T18:06:28.572Z,68.90
2022-08-01T18:08:59.629Z,68.80
2022-08-01T18:11:37.411Z,69.00
2022-08-01T18:14:07.804Z,69.20
2022-08-01T18:16:36.279Z,68.60
2022-08-01T18:19:06.744Z,68.60
2022-08-01T18:21:37.587Z,68.10
2022-08-01T18:24:09.970Z,67.70
2022-08-01T18:26:38.379Z,67.60
2022-08-01T18:29:08.222Z,67.60
2022-08-01T18:31:36.935Z,67.90
2022-08-01T18:34:05.416Z,68.10
2022-08-01T18:36:34.594Z,68.50
2022-08-01T18:39:08.553Z,67.90
2022-08-01T18:41:40.505Z,67.40
2022-08-01T18:44:10.510Z,67.80
2022-08-01T18:46:40.825Z,68.10
2022-08-01T18:49:11.638Z,68.30
2022-08-01T18:51:44.819Z,68.00
2022-08-01T18:54:14.674Z,67.80
2022-08-01T18:56:44.191Z,67.80
2022-08-01T18:59:14.668Z,67.80
2022-08-01T19:01:43.334Z,67.90
2022-08-01T19:04:13.334Z,68.40
2022-08-01T19:06:42.187Z,68.80
2022-08-01T19:09:10.718Z,68.70
2022-08-01T19:11:39.359Z,68.60
2022-08-01T19:14:08.016Z,68.50
2022-08-01T19:16:38.065Z,68.20
2022-08-01T19:19:09.543Z,68.20
2022-08-01T19:21:42.935Z,68.70
2022-08-01T19:24:23.417Z,69.90
2022-08-01T19:26:54.976Z,69.50
2022-08-01T19:29:35.160Z,70.20
2022-08-01T19:32:10.289Z,70.60
2022-08-01T19:34:49.914Z,70.20
2022-08-01T19:37:18.930Z,70.10
2022-08-01T19:39:47.863Z,69.80
2022-08-01T19:42:16.868Z,69.80
2022-08-01T19:44:49.222Z,70.10
2022-08-01T19:47:19.974Z,70.10
2022-08-01T19:49:48.631Z,69.90
2022-08-01T19:52:21.237Z,70.00
2022-08-01T19:54:51.726Z,70.10
2022-08-01T19:57:23.121Z,70.00
2022-08-01T19:59:54.836Z,69.90
2022-08-01T20:02:26.671Z,69.20
2022-08-01T20:04:55.170Z,69.00
2022-08-01T20:07:23.767Z,69.60
2022-08-01T20:09:54.363Z,69.80
2022-08-01T20:12:23.727Z,70.70
2022-08-01T20:14:53.815Z,70.60
2022-08-01T20:17:23.999Z,69.90
2022-08-01T20:19:53.022Z,69.40
2022-08-01T20:22:26.833Z,69.10
2022-08-01T20:24:59.646Z,69.10
2022-08-01T20:27:30.802Z,69.20
2022-08-01T20:30:01.904Z,69.00
2022-08-01T20:32:35.029Z,69.20
2022-08-01T20:35:06.520Z,68.80
2022-08-01T20:38:06.380Z,68.60
2022-08-01T20:40:30.177Z,68.40
2022-08-01T20:42:59.974Z,67.90
2022-08-01T20:45:28.789Z,67.70
2022-08-01T20:47:59.653Z,67.50
2022-08-01T20:50:53.942Z,67.50
2022-08-01T20:53:23.922Z,67.70
2022-08-01T20:56:05.517Z,67.40
2022-08-01T20:58:59.201Z,67.30
2022-08-01T21:01:31.267Z,67.10
2022-08-01T21:04:21.840Z,67.00
2022-08-01T21:06:57.277Z,67.00
2022-08-01T21:09:28.551Z,67.10
2022-08-01T21:12:18.558Z,67.60
2022-08-01T21:14:52.981Z,67.60
2022-08-01T21:17:39.643Z,67.70
2022-08-01T21:20:14.501Z,68.00
2022-08-01T21:22:58.896Z,67.60
2022-08-01T21:25:34.293Z,68.20
2022-08-01T21:28:04.518Z,68.60
2022-08-01T21:30:36.663Z,69.40
2022-08-01T21:33:13.611Z,69.30
2022-08-01T21:35:46.699Z,69.20
2022-08-01T21:38:20.864Z,69.50
2022-08-01T21:40:51.304Z,68.50
2022-08-01T21:43:20.616Z,68.70
2022-08-01T21:45:57.604Z,67.40
2022-08-01T21:48:30.764Z,67.10
2022-08-01T21:51:07.439Z,66.50
2022-08-01T21:53:51.487Z,66.10
2022-08-01T21:56:36.028Z,66.50
2022-08-01T21:59:19.682Z,66.00
2022-08-01T22:01:59.819Z,66.50
2022-08-01T22:04:42.137Z,66.70
2022-08-01T22:07:17.553Z,66.60
2022-08-01T22:09:51.414Z,66.60
2022-08-01T22:12:21.667Z,66.90
2022-08-01T22:14:56.610Z,66.80
2022-08-01T22:17:27.137Z,66.50
2022-08-01T22:19:56.547Z,66.10
2022-08-01T22:22:45.076Z,64.30
2022-08-01T22:25:18.209Z,64.30
2022-08-01T22:28:08.096Z,64.50
2022-08-01T22:30:36.476Z,65.40
2022-08-01T22:33:15.219Z,66.20
2022-08-01T22:35:47.755Z,66.20
2022-08-01T22:38:20.062Z,66.10
2022-08-01T22:40:53.444Z,66.50
2022-08-01T22:43:30.619Z,65.80
2022-08-01T22:46:23.445Z,65.50
2022-08-01T22:48:57.740Z,65.80
2022-08-01T22:51:54.906Z,65.20
2022-08-01T22:54:37.504Z,65.80
2022-08-01T22:57:12.668Z,66.00
2022-08-01T22:59:51.609Z,65.60
2022-08-01T23:02:23.674Z,65.60
2022-08-01T23:05:03.826Z,65.80
2022-08-01T23:07:44.803Z,65.90
2022-08-01T23:10:15.260Z,65.40
2022-08-01T23:12:45.927Z,66.20
2022-08-01T23:15:14.822Z,66.60
2022-08-01T23:17:45.964Z,66.70
2022-08-01T23:20:14.730Z,66.30
2022-08-01T23:22:44.601Z,66.30
2022-08-01T23:25:18.676Z,66.20
2022-08-01T23:27:51.935Z,66.20
2022-08-01T23:30:36.589Z,66.40
2022-08-01T23:33:06.664Z,67.00
2022-08-01T23:35:39.215Z,67.30
2022-08-01T23:38:10.224Z,67.20
2022-08-01T23:40:40.534Z,67.50
2022-08-01T23:43:16.050Z,67.00
2022-08-01T23:46:03.383Z,66.90
2022-08-01T23:48:35.446Z,66.50
2022-08-01T23:51:04.603Z,66.70
2022-08-01T23:53:35.976Z,66.90
2022-08-01T23:56:09.203Z,66.90
2022-08-01T23:58:37.731Z,66.70
